Time;durP1;ratioP1;P1;durP2;ratioP2;P2;SDS_P1;SDS_P2;PMS_P1;PMS_P2;Temp;Humidity;BMP_temperature;BMP_pressure;BME280_temperature;BME280_humidity;BME280_pressure;Samples;Min_cycle;Max_cycle;Signal;HPM_P1;HPM_P2
2022/02/11 00:00:50;;;;;;;34.15;24.10;;;;;;;;;;831771;71;26218;-83
2022/02/11 00:02:05;;;;;;;33.88;22.50;;;;;;;;;;833409;71;26265;-84
2022/02/11 00:06:38;;;;;;;35.08;23.40;;;;;;;;;;835274;71;26175;-83
2022/02/11 00:07:25;;;;;;;35.05;22.52;;;;;;;;;;835047;71;26414;-83
2022/02/11 00:08:28;;;;;;;35.70;23.50;;;;;;;;;;835445;71;26203;-83
2022/02/11 00:09:31;;;;;;;34.03;23.62;;;;;;;;;;835128;71;26866;-83
2022/02/11 00:10:34;;;;;;;32.65;22.77;;;;;;;;;;835315;71;26344;-84
2022/02/11 00:11:38;;;;;;;35.05;23.25;;;;;;;;;;834960;71;26298;-83
2022/02/11 00:12:40;;;;;;;35.10;23.65;;;;;;;;;;835508;71;26324;-83
2022/02/11 00:13:43;;;;;;;35.55;24.27;;;;;;;;;;834799;71;26364;-83
2022/02/11 00:15:02;;;;;;;39.80;25.72;;;;;;;;;;834525;71;26399;-83
2022/02/11 00:15:54;;;;;;;37.83;24.15;;;;;;;;;;830375;71;26259;-83
2022/02/11 00:16:57;;;;;;;34.58;23.75;;;;;;;;;;833737;71;26298;-82
2022/02/11 00:18:00;;;;;;;37.17;24.35;;;;;;;;;;833454;71;26219;-83
2022/02/11 00:19:03;;;;;;;40.25;25.20;;;;;;;;;;832100;71;26789;-82
2022/02/11 00:20:06;;;;;;;45.60;25.17;;;;;;;;;;832071;71;26218;-80
2022/02/11 00:21:09;;;;;;;40.10;25.55;;;;;;;;;;831914;71;26258;-83
2022/02/11 00:22:11;;;;;;;38.80;24.70;;;;;;;;;;831932;71;26289;-83
2022/02/11 00:23:17;;;;;;;36.60;25.12;;;;;;;;;;831622;71;26695;-84
2022/02/11 00:24:20;;;;;;;39.42;25.35;;;;;;;;;;831975;71;26289;-85
2022/02/11 00:25:23;;;;;;;40.67;25.88;;;;;;;;;;832047;71;26315;-83
2022/02/11 00:26:31;;;;;;;36.83;26.95;;;;;;;;;;832110;71;26265;-83
2022/02/11 00:34:32;;;;;;;40.20;25.80;;;;;;;;;;832084;71;26673;-81
2022/02/11 00:35:35;;;;;;;36.55;25.48;;;;;;;;;;831828;71;26227;-84
2022/02/11 00:36:40;;;;;;;36.70;26.57;;;;;;;;;;831680;71;27164;-84
2022/02/11 00:37:39;;;;;;;37.55;25.70;;;;;;;;;;830439;71;26293;-82
2022/02/11 00:40:12;;;;;;;36.93;24.55;;;;;;;;;;831999;71;26794;-82
2022/02/11 00:46:45;;;;;;;36.45;24.40;;;;;;;;;;831915;71;26363;-83
2022/02/11 00:53:29;;;;;;;36.80;23.27;;;;;;;;;;831416;71;26350;-84
2022/02/11 01:03:09;;;;;;;23.98;17.73;;;;;;;;;;831217;71;26340;-83
2022/02/11 01:04:07;;;;;;;26.00;18.45;;;;;;;;;;832242;71;24988;-83
2022/02/11 01:05:09;;;;;;;24.50;17.60;;;;;;;;;;832522;71;26238;-83
2022/02/11 01:06:13;;;;;;;25.68;18.35;;;;;;;;;;833143;71;26272;-82
2022/02/11 01:07:16;;;;;;;28.52;20.15;;;;;;;;;;832742;71;26250;-86
2022/02/11 01:08:19;;;;;;;38.30;25.30;;;;;;;;;;832801;71;26382;-83
2022/02/11 01:09:21;;;;;;;39.88;25.62;;;;;;;;;;832654;71;26231;-83
2022/02/11 01:10:24;;;;;;;33.95;23.90;;;;;;;;;;832149;71;26218;-84
2022/02/11 01:11:39;;;;;;;32.55;22.90;;;;;;;;;;832083;71;26704;-84
2022/02/11 01:12:34;;;;;;;29.23;19.70;;;;;;;;;;830083;71;26275;-83
2022/02/11 01:13:37;;;;;;;27.45;19.30;;;;;;;;;;832107;71;26306;-83
2022/02/11 01:14:47;;;;;;;25.68;18.75;;;;;;;;;;832103;71;26285;-83
2022/02/11 01:15:54;;;;;;;25.82;19.00;;;;;;;;;;831972;71;26683;-82
2022/02/11 01:16:55;;;;;;;26.50;18.20;;;;;;;;;;831960;71;26313;-84
2022/02/11 01:17:58;;;;;;;25.32;18.30;;;;;;;;;;831777;71;26219;-83
2022/02/11 01:19:09;;;;;;;23.62;17.95;;;;;;;;;;831837;71;26329;-82
2022/02/11 01:20:11;;;;;;;23.20;17.90;;;;;;;;;;831634;71;26340;-84
2022/02/11 01:21:15;;;;;;;24.87;17.50;;;;;;;;;;831934;71;26258;-82
2022/02/11 01:22:37;;;;;;;28.25;18.85;;;;;;;;;;830967;71;26323;-83
2022/02/11 01:25:09;;;;;;;26.02;16.90;;;;;;;;;;832150;71;26321;-84
2022/02/11 01:26:20;;;;;;;23.10;16.35;;;;;;;;;;831767;71;26314;-84
2022/02/11 01:29:50;;;;;;;23.07;17.45;;;;;;;;;;832105;71;26331;-83
2022/02/11 01:31:09;;;;;;;23.27;16.05;;;;;;;;;;831989;71;26262;-83
2022/02/11 01:33:32;;;;;;;26.42;18.82;;;;;;;;;;776850;76;26341;-83
2022/02/11 01:35:49;;;;;;;28.30;17.57;;;;;;;;;;832422;71;26262;-82
2022/02/11 01:36:53;;;;;;;22.67;16.50;;;;;;;;;;832189;71;26316;-82
2022/02/11 01:37:55;;;;;;;27.10;18.48;;;;;;;;;;831222;71;26315;-82
2022/02/11 01:45:17;;;;;;;30.25;20.62;;;;;;;;;;785806;71;24761;-82
2022/02/11 01:48:58;;;;;;;29.23;20.00;;;;;;;;;;833031;71;26293;-84
2022/02/11 01:52:21;;;;;;;23.95;18.07;;;;;;;;;;832740;71;26305;-85
2022/02/11 01:53:25;;;;;;;24.67;18.05;;;;;;;;;;830851;71;26363;-84
2022/02/11 01:56:56;;;;;;;26.70;16.45;;;;;;;;;;832621;71;26244;-83
2022/02/11 02:00:40;;;;;;;22.60;17.05;;;;;;;;;;833552;71;26354;-83
2022/02/11 02:04:42;;;;;;;29.30;19.92;;;;;;;;;;790674;75;26289;-80
2022/02/11 02:09:19;;;;;;;33.58;22.13;;;;;;;;;;833823;70;26294;-85
2022/02/11 02:15:37;;;;;;;30.70;21.10;;;;;;;;;;832809;71;26720;-84
2022/02/11 02:24:14;;;;;;;35.90;23.73;;;;;;;;;;834076;71;26738;-82
2022/02/11 02:25:10;;;;;;;34.40;22.50;;;;;;;;;;830600;71;26355;-84
2022/02/11 02:36:02;;;;;;;35.58;22.52;;;;;;;;;;834979;71;26300;-83
2022/02/11 02:50:45;;;;;;;31.48;21.20;;;;;;;;;;833448;71;26801;-82
2022/02/11 02:57:16;;;;;;;27.35;19.62;;;;;;;;;;833343;71;26331;-83
2022/02/11 02:58:15;;;;;;;31.10;20.80;;;;;;;;;;831903;71;26293;-83
2022/02/11 03:01:54;;;;;;;26.33;19.45;;;;;;;;;;833476;71;26265;-83
2022/02/11 03:15:37;;;;;;;29.12;19.25;;;;;;;;;;833519;71;26255;-83
2022/02/11 03:18:00;;;;;;;25.55;18.77;;;;;;;;;;833666;71;24706;-85
2022/02/11 03:34:58;;;;;;;28.02;19.60;;;;;;;;;;830937;71;26822;-83
2022/02/11 03:48:36;;;;;;;29.45;19.95;;;;;;;;;;829505;71;26270;-84
2022/02/11 03:49:16;;;;;;;28.00;17.65;;;;;;;;;;831002;71;26258;-82
2022/02/11 03:50:31;;;;;;;26.73;17.48;;;;;;;;;;831036;71;26298;-82
2022/02/11 03:54:13;;;;;;;26.30;18.17;;;;;;;;;;831451;71;26258;-84
2022/02/11 03:55:46;;;;;;;26.93;17.77;;;;;;;;;;831751;71;26262;-84
2022/02/11 03:58:04;;;;;;;26.27;17.65;;;;;;;;;;831066;71;26231;-85
2022/02/11 04:55:35;;;;;;;29.12;18.42;;;;;;;;;;830875;71;26219;-84
2022/02/11 04:56:42;;;;;;;25.68;17.82;;;;;;;;;;830870;71;26215;-83
2022/02/11 05:00:23;;;;;;;27.82;17.32;;;;;;;;;;830838;71;26235;-82
2022/02/11 05:01:26;;;;;;;25.57;17.67;;;;;;;;;;830893;71;26310;-83
2022/02/11 05:02:30;;;;;;;26.25;17.07;;;;;;;;;;830850;71;26211;-81
2022/02/11 05:03:35;;;;;;;27.62;18.45;;;;;;;;;;830732;71;26294;-83
2022/02/11 05:04:38;;;;;;;24.95;17.87;;;;;;;;;;831074;71;26265;-83
2022/02/11 05:05:49;;;;;;;24.95;17.60;;;;;;;;;;832094;71;26282;-82
2022/02/11 05:06:58;;;;;;;28.47;18.60;;;;;;;;;;831308;71;27454;-84
2022/02/11 05:08:03;;;;;;;25.60;18.77;;;;;;;;;;830997;71;26321;-85
2022/02/11 05:09:06;;;;;;;25.70;18.07;;;;;;;;;;830994;71;26263;-81
2022/02/11 05:10:10;;;;;;;26.48;19.25;;;;;;;;;;830990;71;26323;-84
2022/02/11 05:11:13;;;;;;;28.42;19.40;;;;;;;;;;830766;71;26336;-85
2022/02/11 05:12:16;;;;;;;24.85;18.65;;;;;;;;;;831126;71;26728;-85
2022/02/11 05:13:19;;;;;;;27.60;19.20;;;;;;;;;;831578;71;26735;-82
2022/02/11 05:14:22;;;;;;;28.67;19.57;;;;;;;;;;831503;71;26281;-85
2022/02/11 05:15:24;;;;;;;29.57;20.02;;;;;;;;;;831449;71;26258;-85
2022/02/11 05:16:27;;;;;;;23.73;18.90;;;;;;;;;;830737;71;26313;-86
2022/02/11 05:17:30;;;;;;;25.05;19.30;;;;;;;;;;831152;71;26265;-84
2022/02/11 05:18:33;;;;;;;26.05;19.70;;;;;;;;;;830830;71;26347;-85
2022/02/11 05:19:36;;;;;;;28.20;19.87;;;;;;;;;;830820;71;26258;-85
2022/02/11 05:20:42;;;;;;;28.52;20.65;;;;;;;;;;830950;71;26223;-86
2022/02/11 05:21:45;;;;;;;29.55;20.17;;;;;;;;;;830741;71;26277;-85
2022/02/11 05:22:47;;;;;;;28.02;20.37;;;;;;;;;;831709;71;26367;-85
2022/02/11 05:23:50;;;;;;;28.55;20.20;;;;;;;;;;832044;71;26269;-85
2022/02/11 05:24:53;;;;;;;28.75;20.10;;;;;;;;;;832068;71;26302;-84
2022/02/11 05:25:56;;;;;;;32.35;22.73;;;;;;;;;;832062;71;26371;-86
2022/02/11 05:26:58;;;;;;;34.45;23.50;;;;;;;;;;831777;71;24614;-86
2022/02/11 05:28:01;;;;;;;34.30;22.98;;;;;;;;;;831955;71;26371;-84
2022/02/11 05:29:04;;;;;;;30.80;23.15;;;;;;;;;;832084;71;26223;-86
2022/02/11 05:30:07;;;;;;;33.55;23.95;;;;;;;;;;832045;71;26544;-86
2022/02/11 05:31:10;;;;;;;38.13;25.43;;;;;;;;;;832181;71;26305;-84
2022/02/11 05:32:13;;;;;;;37.70;24.20;;;;;;;;;;832293;71;26230;-85
2022/02/11 05:33:15;;;;;;;36.70;24.27;;;;;;;;;;832386;71;26439;-85
2022/02/11 05:34:18;;;;;;;35.10;24.45;;;;;;;;;;832552;71;26312;-85
2022/02/11 05:35:21;;;;;;;33.28;23.75;;;;;;;;;;832503;71;26324;-83
2022/02/11 05:36:24;;;;;;;34.50;23.45;;;;;;;;;;833378;71;26264;-86
2022/02/11 05:37:27;;;;;;;34.55;23.05;;;;;;;;;;833080;71;26298;-83
2022/02/11 05:38:30;;;;;;;39.65;24.30;;;;;;;;;;832203;71;26285;-85
2022/02/11 05:39:32;;;;;;;36.58;25.40;;;;;;;;;;832117;71;26301;-84
2022/02/11 05:40:35;;;;;;;40.58;27.25;;;;;;;;;;832335;71;26318;-84
2022/02/11 05:41:38;;;;;;;35.85;25.10;;;;;;;;;;832369;71;26343;-84
2022/02/11 05:42:41;;;;;;;33.90;23.92;;;;;;;;;;832404;71;26215;-83
2022/02/11 05:43:43;;;;;;;35.33;24.27;;;;;;;;;;832375;71;26266;-86
2022/02/11 05:44:48;;;;;;;33.42;23.32;;;;;;;;;;832331;71;26262;-84
2022/02/11 05:45:51;;;;;;;33.38;23.40;;;;;;;;;;832264;71;27032;-86
2022/02/11 05:46:54;;;;;;;32.50;22.90;;;;;;;;;;832339;71;26288;-86
2022/02/11 05:47:57;;;;;;;31.25;22.35;;;;;;;;;;832545;71;26290;-86
2022/02/11 05:49:00;;;;;;;31.65;23.22;;;;;;;;;;832765;71;26226;-84
2022/02/11 05:50:03;;;;;;;33.05;23.20;;;;;;;;;;832208;71;26470;-81
2022/02/11 05:51:08;;;;;;;34.00;23.18;;;;;;;;;;826372;71;26319;-84
2022/02/11 05:52:10;;;;;;;32.55;23.20;;;;;;;;;;831959;71;26252;-79
2022/02/11 05:53:13;;;;;;;31.35;22.60;;;;;;;;;;831821;71;24654;-80
2022/02/11 05:54:16;;;;;;;34.60;24.50;;;;;;;;;;831869;71;26261;-79
2022/02/11 05:55:19;;;;;;;34.75;23.75;;;;;;;;;;831810;71;26312;-81
2022/02/11 05:56:21;;;;;;;36.50;24.65;;;;;;;;;;832119;71;26281;-82
2022/02/11 05:57:24;;;;;;;36.05;24.07;;;;;;;;;;832019;71;26387;-80
2022/02/11 05:58:27;;;;;;;35.35;25.12;;;;;;;;;;833656;71;26278;-84
2022/02/11 05:59:29;;;;;;;36.40;25.12;;;;;;;;;;833829;71;26265;-84
2022/02/11 06:00:32;;;;;;;34.88;23.62;;;;;;;;;;833859;71;26206;-84
2022/02/11 06:01:35;;;;;;;34.58;24.75;;;;;;;;;;833225;71;26425;-82
2022/02/11 06:02:38;;;;;;;36.50;24.92;;;;;;;;;;832852;71;26293;-85
2022/02/11 06:03:41;;;;;;;36.10;25.77;;;;;;;;;;832323;71;26250;-85
2022/02/11 06:04:44;;;;;;;32.70;24.12;;;;;;;;;;832620;71;26802;-84
2022/02/11 06:05:46;;;;;;;34.25;25.00;;;;;;;;;;832196;71;26792;-82
2022/02/11 06:06:49;;;;;;;32.83;24.87;;;;;;;;;;832082;71;26359;-83
2022/02/11 06:07:52;;;;;;;34.27;26.02;;;;;;;;;;832173;71;26630;-84
2022/02/11 06:08:55;;;;;;;36.15;26.90;;;;;;;;;;832193;71;26363;-86
2022/02/11 06:09:58;;;;;;;38.23;27.55;;;;;;;;;;832218;71;27075;-85
2022/02/11 06:11:01;;;;;;;36.20;27.50;;;;;;;;;;832086;71;26305;-85
2022/02/11 06:12:03;;;;;;;33.50;24.67;;;;;;;;;;832329;71;26265;-84
2022/02/11 06:13:06;;;;;;;33.55;27.30;;;;;;;;;;832129;71;26796;-84
2022/02/11 06:14:09;;;;;;;40.40;28.32;;;;;;;;;;832169;71;26715;-82
2022/02/11 06:15:12;;;;;;;34.10;26.93;;;;;;;;;;832023;71;26682;-83
2022/02/11 06:16:14;;;;;;;33.23;26.70;;;;;;;;;;832089;71;26708;-83
2022/02/11 06:17:20;;;;;;;37.35;28.98;;;;;;;;;;831905;71;26687;-84
2022/02/11 06:18:22;;;;;;;35.30;27.60;;;;;;;;;;832253;71;26653;-83
2022/02/11 06:19:24;;;;;;;34.95;27.45;;;;;;;;;;832226;71;26253;-84
2022/02/11 06:20:30;;;;;;;40.85;29.80;;;;;;;;;;832313;71;26445;-82
2022/02/11 06:21:33;;;;;;;38.83;30.75;;;;;;;;;;833205;71;26227;-85
2022/02/11 06:22:37;;;;;;;36.77;29.48;;;;;;;;;;832465;71;27009;-84
2022/02/11 06:23:40;;;;;;;37.85;30.25;;;;;;;;;;832439;71;26303;-83
2022/02/11 06:24:43;;;;;;;36.88;29.40;;;;;;;;;;832457;71;26335;-86
2022/02/11 06:25:46;;;;;;;38.58;30.52;;;;;;;;;;832535;71;26272;-85
2022/02/11 06:26:49;;;;;;;38.42;31.25;;;;;;;;;;832237;71;26323;-84
2022/02/11 06:27:52;;;;;;;39.00;31.15;;;;;;;;;;832578;71;26384;-82
2022/02/11 06:28:55;;;;;;;34.75;29.18;;;;;;;;;;832581;71;26272;-85
2022/02/11 06:29:58;;;;;;;36.70;30.32;;;;;;;;;;833105;71;26284;-83
2022/02/11 06:31:02;;;;;;;37.05;30.32;;;;;;;;;;832116;71;26294;-84
2022/02/11 06:32:05;;;;;;;40.75;31.68;;;;;;;;;;832107;71;26266;-84
2022/02/11 06:33:07;;;;;;;37.13;29.80;;;;;;;;;;832106;71;26348;-83
2022/02/11 06:34:11;;;;;;;36.88;29.23;;;;;;;;;;831907;71;26304;-84
2022/02/11 06:35:14;;;;;;;37.67;30.55;;;;;;;;;;832342;71;26319;-86
2022/02/11 06:36:17;;;;;;;40.83;31.40;;;;;;;;;;832221;71;26789;-85
2022/02/11 06:37:21;;;;;;;39.33;32.05;;;;;;;;;;832064;71;26251;-85
2022/02/11 06:38:24;;;;;;;35.63;30.65;;;;;;;;;;832255;71;26250;-84
2022/02/11 06:39:27;;;;;;;36.63;30.50;;;;;;;;;;832906;71;26202;-85
2022/02/11 06:40:30;;;;;;;39.08;32.13;;;;;;;;;;832068;71;26328;-84
2022/02/11 06:41:33;;;;;;;40.80;30.35;;;;;;;;;;832074;71;26284;-80
2022/02/11 06:42:36;;;;;;;39.45;31.85;;;;;;;;;;831985;71;26265;-84
2022/02/11 06:43:39;;;;;;;40.28;30.37;;;;;;;;;;831758;71;26281;-83
2022/02/11 06:44:43;;;;;;;36.30;31.33;;;;;;;;;;831468;71;26339;-82
2022/02/11 06:45:46;;;;;;;39.85;32.25;;;;;;;;;;831936;71;26367;-85
2022/02/11 06:46:49;;;;;;;41.53;30.52;;;;;;;;;;832011;71;26218;-84
2022/02/11 06:47:53;;;;;;;34.18;30.30;;;;;;;;;;832116;71;26261;-82
2022/02/11 06:48:56;;;;;;;38.83;31.55;;;;;;;;;;831972;71;26306;-82
2022/02/11 06:49:59;;;;;;;36.83;31.02;;;;;;;;;;832043;71;26262;-83
2022/02/11 06:51:01;;;;;;;39.80;31.77;;;;;;;;;;831831;71;26272;-85
2022/02/11 06:52:04;;;;;;;36.23;30.32;;;;;;;;;;832091;71;26219;-82
2022/02/11 06:53:09;;;;;;;35.28;30.40;;;;;;;;;;832080;71;26720;-83
2022/02/11 06:54:12;;;;;;;38.45;30.97;;;;;;;;;;832117;71;26293;-84
2022/02/11 06:55:16;;;;;;;35.05;29.40;;;;;;;;;;831954;71;26257;-83
2022/02/11 06:56:18;;;;;;;35.58;29.77;;;;;;;;;;831948;71;26305;-84
2022/02/11 06:57:21;;;;;;;34.73;28.15;;;;;;;;;;832042;71;26727;-82
2022/02/11 06:58:24;;;;;;;38.10;28.57;;;;;;;;;;832097;71;26301;-82
2022/02/11 06:59:26;;;;;;;32.85;27.98;;;;;;;;;;831989;71;26289;-84
2022/02/11 07:00:29;;;;;;;31.57;28.32;;;;;;;;;;832114;71;26786;-82
2022/02/11 07:01:37;;;;;;;33.88;28.45;;;;;;;;;;832015;71;26339;-81
2022/02/11 07:02:39;;;;;;;35.25;29.57;;;;;;;;;;828821;71;26270;-82
2022/02/11 07:03:41;;;;;;;40.98;30.85;;;;;;;;;;832034;71;26253;-81
2022/02/11 07:04:44;;;;;;;35.58;29.52;;;;;;;;;;832197;71;26321;-82
2022/02/11 07:05:47;;;;;;;35.65;29.95;;;;;;;;;;832325;71;26282;-82
2022/02/11 07:06:51;;;;;;;35.15;28.95;;;;;;;;;;832347;71;26266;-82
2022/02/11 07:07:54;;;;;;;38.33;30.35;;;;;;;;;;832171;71;26463;-83
2022/02/11 07:08:57;;;;;;;35.48;29.35;;;;;;;;;;832397;71;26277;-84
2022/02/11 07:10:00;;;;;;;33.15;29.48;;;;;;;;;;832358;71;26211;-85
2022/02/11 07:11:02;;;;;;;35.80;29.70;;;;;;;;;;832448;71;26250;-85
2022/02/11 07:12:06;;;;;;;41.08;30.43;;;;;;;;;;832377;71;26277;-85
2022/02/11 07:13:13;;;;;;;37.28;31.75;;;;;;;;;;832062;71;27459;-84
2022/02/11 07:14:14;;;;;;;37.53;30.57;;;;;;;;;;832262;71;26316;-83
2022/02/11 07:15:17;;;;;;;39.15;30.90;;;;;;;;;;832186;71;26297;-85
2022/02/11 07:16:20;;;;;;;35.40;30.92;;;;;;;;;;832371;71;26374;-84
2022/02/11 07:17:22;;;;;;;37.45;31.50;;;;;;;;;;832182;71;26727;-84
2022/02/11 07:18:25;;;;;;;36.50;31.45;;;;;;;;;;831966;71;26315;-82
2022/02/11 07:19:28;;;;;;;35.35;30.75;;;;;;;;;;833268;71;26249;-84
2022/02/11 07:20:31;;;;;;;39.45;31.35;;;;;;;;;;832316;71;26750;-81
2022/02/11 07:21:35;;;;;;;38.90;31.00;;;;;;;;;;832114;71;26323;-81
2022/02/11 07:22:38;;;;;;;42.88;33.88;;;;;;;;;;832037;71;26320;-80
2022/02/11 07:23:41;;;;;;;41.13;33.05;;;;;;;;;;832031;71;26266;-81
2022/02/11 07:24:43;;;;;;;40.23;32.63;;;;;;;;;;831865;71;26270;-80
2022/02/11 07:25:46;;;;;;;38.85;32.42;;;;;;;;;;832096;71;26325;-81
2022/02/11 07:26:49;;;;;;;40.12;31.85;;;;;;;;;;832035;71;26297;-81
2022/02/11 07:27:51;;;;;;;39.75;31.68;;;;;;;;;;832023;71;26633;-82
2022/02/11 07:28:56;;;;;;;41.28;32.80;;;;;;;;;;829895;71;26267;-81
2022/02/11 07:30:00;;;;;;;41.50;32.55;;;;;;;;;;830930;71;26397;-82
2022/02/11 07:31:03;;;;;;;37.15;30.82;;;;;;;;;;831364;71;26887;-84
2022/02/11 07:32:07;;;;;;;37.38;31.60;;;;;;;;;;832003;71;26745;-82
2022/02/11 07:33:10;;;;;;;40.23;32.40;;;;;;;;;;832126;71;26331;-81
2022/02/11 07:34:13;;;;;;;39.03;33.40;;;;;;;;;;832021;71;26367;-84
2022/02/11 07:35:15;;;;;;;39.38;32.63;;;;;;;;;;831998;71;26208;-83
2022/02/11 07:36:18;;;;;;;37.98;33.23;;;;;;;;;;832169;71;26716;-84
2022/02/11 07:37:22;;;;;;;41.83;33.02;;;;;;;;;;832231;71;26302;-84
2022/02/11 07:38:26;;;;;;;38.98;32.55;;;;;;;;;;831825;71;27095;-83
2022/02/11 07:39:30;;;;;;;38.28;33.53;;;;;;;;;;832060;71;26304;-84
2022/02/11 07:40:33;;;;;;;42.60;33.90;;;;;;;;;;831986;71;26255;-82
2022/02/11 07:41:36;;;;;;;39.60;34.75;;;;;;;;;;831873;71;26206;-81
2022/02/11 07:42:39;;;;;;;51.63;41.65;;;;;;;;;;831968;71;26226;-82
2022/02/11 07:43:42;;;;;;;49.27;39.60;;;;;;;;;;832170;71;26282;-82
2022/02/11 07:44:45;;;;;;;43.85;36.80;;;;;;;;;;832340;71;26254;-82
2022/02/11 07:45:48;;;;;;;40.05;35.45;;;;;;;;;;832961;71;26266;-83
2022/02/11 07:46:51;;;;;;;41.08;35.00;;;;;;;;;;833130;71;26308;-84
2022/02/11 07:47:54;;;;;;;44.65;36.77;;;;;;;;;;833194;71;26272;-83
2022/02/11 07:48:57;;;;;;;42.40;37.53;;;;;;;;;;832228;71;26250;-82
2022/02/11 07:49:59;;;;;;;47.17;37.15;;;;;;;;;;832114;71;26488;-83
2022/02/11 07:51:02;;;;;;;42.33;36.03;;;;;;;;;;832075;71;26316;-82
2022/02/11 07:52:05;;;;;;;45.45;38.33;;;;;;;;;;832019;71;26254;-82
2022/02/11 07:53:08;;;;;;;46.48;37.42;;;;;;;;;;832047;71;26339;-83
2022/02/11 07:54:11;;;;;;;43.45;36.53;;;;;;;;;;832097;71;26247;-84
2022/02/11 07:55:14;;;;;;;41.68;35.95;;;;;;;;;;832328;71;26773;-81
2022/02/11 07:56:16;;;;;;;44.08;37.13;;;;;;;;;;832385;71;26289;-82
2022/02/11 07:57:19;;;;;;;41.10;35.55;;;;;;;;;;833356;71;26401;-79
2022/02/11 07:58:27;;;;;;;43.80;34.25;;;;;;;;;;833657;71;27373;-82
2022/02/11 07:59:28;;;;;;;43.10;35.70;;;;;;;;;;832380;71;26313;-83
2022/02/11 08:00:31;;;;;;;41.63;36.20;;;;;;;;;;832343;71;26266;-83
2022/02/11 08:01:34;;;;;;;42.15;36.38;;;;;;;;;;832231;71;26262;-83
2022/02/11 08:02:36;;;;;;;44.77;37.20;;;;;;;;;;832135;71;26347;-83
2022/02/11 08:03:40;;;;;;;44.35;36.20;;;;;;;;;;833377;71;26315;-81
2022/02/11 08:04:43;;;;;;;42.53;35.28;;;;;;;;;;833339;71;26294;-82
2022/02/11 08:05:46;;;;;;;40.67;33.55;;;;;;;;;;833545;71;26336;-84
2022/02/11 08:06:49;;;;;;;36.75;32.75;;;;;;;;;;833561;71;26324;-82
2022/02/11 08:07:51;;;;;;;38.90;33.83;;;;;;;;;;833628;71;26274;-83
2022/02/11 08:08:54;;;;;;;42.93;35.35;;;;;;;;;;833544;71;26269;-83
2022/02/11 08:09:57;;;;;;;37.55;32.08;;;;;;;;;;833522;71;26703;-83
2022/02/11 08:11:00;;;;;;;37.03;31.12;;;;;;;;;;833478;71;26269;-83
2022/02/11 08:12:03;;;;;;;37.42;31.15;;;;;;;;;;833256;71;26294;-85
2022/02/11 08:13:06;;;;;;;38.33;33.10;;;;;;;;;;832750;71;26212;-81
2022/02/11 08:14:08;;;;;;;39.38;34.45;;;;;;;;;;831963;71;26214;-82
2022/02/11 08:15:11;;;;;;;45.92;37.80;;;;;;;;;;832166;71;27084;-83
2022/02/11 08:16:14;;;;;;;42.03;35.83;;;;;;;;;;832063;71;26255;-82
2022/02/11 08:17:17;;;;;;;38.17;33.70;;;;;;;;;;832205;71;26695;-82
2022/02/11 08:18:20;;;;;;;37.10;31.33;;;;;;;;;;832192;71;26259;-81
2022/02/11 08:19:24;;;;;;;49.90;37.75;;;;;;;;;;827140;71;26994;-80
2022/02/11 08:20:29;;;;;;;49.88;38.90;;;;;;;;;;832732;71;26412;-83
2022/02/11 08:21:32;;;;;;;48.80;38.65;;;;;;;;;;832438;71;26657;-83
2022/02/11 08:22:35;;;;;;;44.48;37.70;;;;;;;;;;832210;71;26274;-81
2022/02/11 08:23:37;;;;;;;44.42;37.25;;;;;;;;;;832164;71;26478;-85
2022/02/11 08:24:40;;;;;;;42.30;34.38;;;;;;;;;;832146;71;26613;-82
2022/02/11 08:25:43;;;;;;;43.02;35.03;;;;;;;;;;833445;71;26281;-82
2022/02/11 08:26:46;;;;;;;40.63;34.85;;;;;;;;;;833748;71;26281;-86
2022/02/11 08:27:51;;;;;;;41.02;34.78;;;;;;;;;;833527;71;26290;-87
2022/02/11 08:28:55;;;;;;;39.78;32.58;;;;;;;;;;829270;71;26768;-85
2022/02/11 08:29:59;;;;;;;38.05;32.88;;;;;;;;;;833880;71;26371;-86
2022/02/11 08:31:03;;;;;;;35.20;31.00;;;;;;;;;;833558;71;26271;-88
2022/02/11 08:32:06;;;;;;;35.75;31.00;;;;;;;;;;833722;71;26340;-87
2022/02/11 08:33:09;;;;;;;35.63;30.25;;;;;;;;;;833977;71;26251;-87
2022/02/11 08:34:12;;;;;;;36.08;29.18;;;;;;;;;;834062;71;26297;-87
2022/02/11 08:35:15;;;;;;;36.35;29.90;;;;;;;;;;834538;71;26266;-86
2022/02/11 08:36:23;;;;;;;35.92;29.27;;;;;;;;;;834401;71;26290;-88
2022/02/11 08:37:24;;;;;;;36.93;29.65;;;;;;;;;;833175;71;26297;-87
2022/02/11 08:38:27;;;;;;;32.35;28.85;;;;;;;;;;834127;71;26273;-85
2022/02/11 08:39:34;;;;;;;38.75;32.15;;;;;;;;;;834591;71;26644;-86
2022/02/11 08:40:35;;;;;;;36.33;30.85;;;;;;;;;;834233;71;26297;-87
2022/02/11 08:41:39;;;;;;;35.28;30.80;;;;;;;;;;834280;71;26254;-86
2022/02/11 08:42:42;;;;;;;38.88;32.67;;;;;;;;;;833647;71;26223;-89
2022/02/11 08:43:45;;;;;;;34.92;31.10;;;;;;;;;;834150;71;26733;-88
2022/02/11 08:44:48;;;;;;;33.85;30.17;;;;;;;;;;834266;71;26348;-86
2022/02/11 08:45:51;;;;;;;37.40;31.48;;;;;;;;;;834202;71;26285;-88
2022/02/11 08:46:54;;;;;;;37.45;32.15;;;;;;;;;;833955;71;27080;-86
2022/02/11 08:47:57;;;;;;;40.55;32.13;;;;;;;;;;834166;71;26219;-87
2022/02/11 08:49:01;;;;;;;34.73;31.02;;;;;;;;;;833914;71;26234;-86
2022/02/11 08:50:04;;;;;;;37.45;32.25;;;;;;;;;;833784;71;26238;-86
2022/02/11 08:51:07;;;;;;;38.33;33.88;;;;;;;;;;833828;71;26711;-87
2022/02/11 08:52:10;;;;;;;37.88;33.30;;;;;;;;;;833722;71;26258;-87
2022/02/11 08:53:13;;;;;;;37.17;30.80;;;;;;;;;;833698;71;26690;-86
2022/02/11 08:54:15;;;;;;;38.20;33.02;;;;;;;;;;833388;71;26837;-87
2022/02/11 08:55:22;;;;;;;37.25;32.05;;;;;;;;;;833820;71;26307;-86
2022/02/11 08:56:23;;;;;;;36.98;32.10;;;;;;;;;;833592;71;26656;-85
2022/02/11 08:57:29;;;;;;;41.23;32.33;;;;;;;;;;833755;71;26331;-87
2022/02/11 08:58:33;;;;;;;35.95;31.37;;;;;;;;;;833683;71;26351;-87
2022/02/11 08:59:39;;;;;;;39.78;32.20;;;;;;;;;;833874;71;26393;-87
2022/02/11 09:00:41;;;;;;;38.60;32.93;;;;;;;;;;833769;71;26282;-85
2022/02/11 09:01:44;;;;;;;38.73;31.25;;;;;;;;;;833662;71;26327;-83
2022/02/11 09:02:47;;;;;;;37.53;31.70;;;;;;;;;;833786;71;26297;-84
2022/02/11 09:03:51;;;;;;;39.48;32.95;;;;;;;;;;834024;71;26354;-86
2022/02/11 09:04:54;;;;;;;35.13;31.25;;;;;;;;;;833852;71;26776;-84
2022/02/11 09:05:57;;;;;;;37.35;31.85;;;;;;;;;;834005;71;26493;-85
2022/02/11 09:07:00;;;;;;;37.85;32.30;;;;;;;;;;834642;71;26250;-84
2022/02/11 09:08:03;;;;;;;39.20;31.48;;;;;;;;;;834790;71;26335;-85
2022/02/11 09:09:08;;;;;;;37.00;30.82;;;;;;;;;;834836;71;26366;-85
2022/02/11 09:10:11;;;;;;;37.33;30.85;;;;;;;;;;834630;70;26681;-86
2022/02/11 09:11:19;;;;;;;39.98;29.77;;;;;;;;;;834795;71;26617;-84
2022/02/11 09:12:18;;;;;;;35.60;29.27;;;;;;;;;;834914;71;26343;-84
2022/02/11 09:13:23;;;;;;;32.05;28.57;;;;;;;;;;835001;71;26302;-85
2022/02/11 09:14:25;;;;;;;35.92;29.85;;;;;;;;;;834218;71;26351;-86
2022/02/11 09:15:29;;;;;;;34.55;29.75;;;;;;;;;;834319;71;26331;-86
2022/02/11 09:16:33;;;;;;;33.92;29.32;;;;;;;;;;834365;71;26697;-83
2022/02/11 09:17:35;;;;;;;43.05;30.85;;;;;;;;;;833903;71;26293;-85
2022/02/11 09:18:39;;;;;;;34.35;29.82;;;;;;;;;;834261;71;26393;-83
2022/02/11 09:19:42;;;;;;;33.95;28.57;;;;;;;;;;834171;71;26505;-86
2022/02/11 09:20:45;;;;;;;34.65;29.87;;;;;;;;;;833659;71;26254;-85
2022/02/11 09:21:48;;;;;;;37.20;30.65;;;;;;;;;;833782;71;26363;-83
2022/02/11 09:22:53;;;;;;;33.00;29.40;;;;;;;;;;833914;71;26238;-83
2022/02/11 09:23:55;;;;;;;38.48;30.92;;;;;;;;;;833677;71;26343;-83
2022/02/11 09:24:58;;;;;;;36.00;30.60;;;;;;;;;;833730;71;26250;-83
2022/02/11 09:26:02;;;;;;;36.65;31.57;;;;;;;;;;833942;71;26300;-84
2022/02/11 09:27:06;;;;;;;35.13;30.00;;;;;;;;;;833049;71;26238;-83
2022/02/11 09:28:08;;;;;;;36.95;30.70;;;;;;;;;;832843;71;26254;-86
2022/02/11 09:29:11;;;;;;;35.15;30.15;;;;;;;;;;833175;71;26312;-85
2022/02/11 09:30:22;;;;;;;37.15;31.10;;;;;;;;;;831735;71;26383;-87
2022/02/11 09:31:27;;;;;;;37.35;31.97;;;;;;;;;;832506;71;26306;-85
2022/02/11 09:32:34;;;;;;;39.03;33.10;;;;;;;;;;832363;71;26290;-86
2022/02/11 09:33:35;;;;;;;41.23;32.60;;;;;;;;;;833344;71;26191;-87
2022/02/11 09:34:38;;;;;;;39.70;32.30;;;;;;;;;;832367;71;26313;-87
2022/02/11 09:35:43;;;;;;;37.05;31.25;;;;;;;;;;832736;71;26474;-87
2022/02/11 09:36:45;;;;;;;35.17;31.48;;;;;;;;;;832695;71;26293;-87
2022/02/11 09:37:48;;;;;;;41.65;32.28;;;;;;;;;;831909;71;26273;-87
2022/02/11 09:38:51;;;;;;;37.13;32.23;;;;;;;;;;832352;71;26371;-88
2022/02/11 09:39:54;;;;;;;42.55;35.80;;;;;;;;;;832375;71;26301;-86
2022/02/11 09:40:58;;;;;;;45.20;38.08;;;;;;;;;;832285;71;26394;-87
2022/02/11 09:42:01;;;;;;;47.45;38.90;;;;;;;;;;832078;71;26731;-87
2022/02/11 09:43:04;;;;;;;44.35;39.03;;;;;;;;;;832621;71;24438;-86
2022/02/11 09:44:07;;;;;;;45.92;40.38;;;;;;;;;;832265;71;26269;-87
2022/02/11 09:45:13;;;;;;;46.15;41.05;;;;;;;;;;832158;71;26219;-86
2022/02/11 09:46:16;;;;;;;52.53;41.58;;;;;;;;;;832263;71;26286;-85